createdAt,value
2022-10-12T00:01:10.423Z,12.00
2022-10-12T00:03:39.426Z,12.00
2022-10-12T00:06:19.313Z,12.00
2022-10-12T00:08:48.532Z,11.90
2022-10-12T00:11:22.250Z,11.90
2022-10-12T00:13:50.324Z,11.80
2022-10-12T00:16:20.062Z,11.80
2022-10-12T00:18:52.764Z,11.80
2022-10-12T00:21:21.343Z,11.80
2022-10-12T00:23:54.321Z,11.80
2022-10-12T00:26:26.275Z,11.70
2022-10-12T00:29:00.110Z,11.60
2022-10-12T00:31:29.372Z,11.50
2022-10-12T00:33:57.420Z,11.50
2022-10-12T00:36:28.539Z,11.60
2022-10-12T00:38:57.672Z,11.60
2022-10-12T00:41:33.490Z,11.60
2022-10-12T00:44:01.651Z,11.60
2022-10-12T00:46:40.382Z,11.60
2022-10-12T00:49:23.576Z,11.60
2022-10-12T00:52:15.833Z,11.60
2022-10-12T00:54:47.895Z,11.60
2022-10-12T00:57:17.903Z,11.60
2022-10-12T00:59:57.849Z,11.60
2022-10-12T01:02:28.962Z,11.50
2022-10-12T01:04:57.545Z,11.50
2022-10-12T01:07:25.425Z,11.50
2022-10-12T01:09:57.214Z,11.50
2022-10-12T01:12:25.805Z,11.50
2022-10-12T01:14:53.743Z,11.50
2022-10-12T01:17:36.672Z,11.50
2022-10-12T01:20:35.422Z,11.50
2022-10-12T01:23:18.169Z,11.40
2022-10-12T01:26:11.410Z,11.40
2022-10-12T01:29:05.650Z,11.40
2022-10-12T01:32:08.924Z,11.40
2022-10-12T01:35:14.398Z,11.40
2022-10-12T01:38:02.413Z,11.40
2022-10-12T01:40:49.375Z,11.30
2022-10-12T01:43:22.433Z,11.30
2022-10-12T01:45:51.663Z,11.30
2022-10-12T01:48:23.052Z,11.20
2022-10-12T01:50:58.086Z,11.20
2022-10-12T01:53:43.390Z,11.10
2022-10-12T01:56:23.585Z,11.10
2022-10-12T01:59:01.653Z,11.00
2022-10-12T02:01:41.552Z,11.00
2022-10-12T02:04:21.618Z,10.90
2022-10-12T02:07:04.285Z,10.90
2022-10-12T02:09:35.757Z,10.80
2022-10-12T02:12:07.005Z,10.80
2022-10-12T02:14:46.127Z,10.70
2022-10-12T02:17:17.744Z,10.70
2022-10-12T02:19:51.519Z,10.70
2022-10-12T02:22:19.844Z,10.60
2022-10-12T02:24:50.211Z,10.50
2022-10-12T02:27:20.946Z,10.50
2022-10-12T02:29:50.446Z,10.50
2022-10-12T02:32:26.084Z,10.40
2022-10-12T02:35:14.850Z,10.40
2022-10-12T02:37:52.435Z,10.30
2022-10-12T02:40:36.506Z,10.30
2022-10-12T02:43:15.009Z,10.30
2022-10-12T02:45:46.331Z,10.20
2022-10-12T02:48:20.161Z,10.10
2022-10-12T02:50:54.261Z,10.10
2022-10-12T02:53:26.763Z,10.10
2022-10-12T02:56:00.388Z,10.00
2022-10-12T02:58:28.331Z,10.00
2022-10-12T03:00:56.237Z,10.00
2022-10-12T03:03:24.251Z,10.00
2022-10-12T03:05:52.254Z,10.00
2022-10-12T03:08:20.155Z,9.90
2022-10-12T03:10:50.268Z,9.90
2022-10-12T03:13:18.274Z,9.90
2022-10-12T03:15:46.370Z,9.90
2022-10-12T03:18:14.477Z,9.90
2022-10-12T03:20:42.335Z,9.90
2022-10-12T03:23:10.244Z,9.80
2022-10-12T03:25:38.046Z,9.70
2022-10-12T03:28:05.978Z,9.70
2022-10-12T03:30:33.813Z,9.70
2022-10-12T03:33:01.790Z,9.70
2022-10-12T03:35:30.235Z,9.70
2022-10-12T03:37:58.176Z,9.70
2022-10-12T03:40:28.835Z,9.70
2022-10-12T03:42:58.185Z,9.60
2022-10-12T03:45:26.090Z,9.50
2022-10-12T03:47:53.937Z,9.50
2022-10-12T03:50:21.798Z,9.50
2022-10-12T03:52:50.291Z,9.40
2022-10-12T03:55:18.357Z,9.40
2022-10-12T03:57:46.905Z,9.50
2022-10-12T04:00:15.374Z,9.40
2022-10-12T04:02:43.210Z,9.40
2022-10-12T04:05:11.122Z,9.40
2022-10-12T04:07:39.296Z,9.30
2022-10-12T04:10:08.429Z,9.30
2022-10-12T04:12:36.566Z,9.20
2022-10-12T04:15:05.484Z,9.20
2022-10-12T04:17:33.579Z,9.20
2022-10-12T04:20:01.479Z,9.20
2022-10-12T04:22:29.397Z,9.20
2022-10-12T04:24:57.283Z,9.20
2022-10-12T04:27:25.233Z,9.20
2022-10-12T04:29:53.118Z,9.10
2022-10-12T04:32:21.111Z,9.10
2022-10-12T04:34:48.989Z,9.00
2022-10-12T04:37:17.272Z,9.00
2022-10-12T04:39:45.191Z,9.00
2022-10-12T04:42:13.219Z,9.00
2022-10-12T04:44:41.088Z,9.00
2022-10-12T04:47:09.086Z,8.80
2022-10-12T04:49:36.973Z,8.80
2022-10-12T04:52:08.119Z,8.80
2022-10-12T04:54:38.691Z,8.60
2022-10-12T04:57:07.811Z,8.60
2022-10-12T04:59:35.786Z,8.50
2022-10-12T05:02:03.685Z,8.50
2022-10-12T05:04:31.688Z,8.50
2022-10-12T05:06:59.584Z,8.50
2022-10-12T05:09:28.221Z,8.50
2022-10-12T05:11:56.123Z,8.50
2022-10-12T05:14:24.075Z,8.50
2022-10-12T05:16:51.914Z,8.50
2022-10-12T05:19:19.793Z,8.50
2022-10-12T05:21:48.015Z,8.50
2022-10-12T05:24:16.022Z,8.50
2022-10-12T05:26:43.963Z,8.50
2022-10-12T05:29:12.183Z,8.50
2022-10-12T05:31:40.054Z,8.50
2022-10-12T05:34:07.902Z,8.50
2022-10-12T05:36:35.917Z,8.60
2022-10-12T05:39:10.041Z,8.60
2022-10-12T05:41:38.047Z,8.60
2022-10-12T05:44:06.382Z,8.70
2022-10-12T05:46:34.671Z,8.70
2022-10-12T05:49:02.601Z,8.70
2022-10-12T05:51:30.449Z,8.70
2022-10-12T05:53:58.311Z,8.70
2022-10-12T05:56:26.214Z,8.70
2022-10-12T05:58:54.114Z,8.70
2022-10-12T06:01:22.166Z,8.80
2022-10-12T06:03:50.100Z,8.80
2022-10-12T06:06:18.002Z,8.90
2022-10-12T06:08:45.860Z,8.90
2022-10-12T06:11:14.777Z,8.80
2022-10-12T06:13:42.648Z,8.80
2022-10-12T06:16:10.492Z,8.80
2022-10-12T06:18:38.430Z,8.80
2022-10-12T06:21:32.065Z,8.80
2022-10-12T06:23:54.665Z,8.90
2022-10-12T06:26:22.509Z,8.90
2022-10-12T06:28:50.418Z,8.90
2022-10-12T06:31:25.745Z,9.00
2022-10-12T06:33:56.927Z,9.10
2022-10-12T06:36:25.170Z,9.00
2022-10-12T06:38:53.164Z,9.10
2022-10-12T06:41:21.074Z,9.20
2022-10-12T06:43:48.919Z,9.30
2022-10-12T06:46:16.852Z,9.30
2022-10-12T06:48:44.751Z,9.30
2022-10-12T06:51:12.695Z,9.30
2022-10-12T06:53:40.538Z,9.40
2022-10-12T06:56:12.431Z,9.30
2022-10-12T06:58:40.630Z,9.40
2022-10-12T07:01:11.359Z,9.50
2022-10-12T07:03:39.430Z,9.50
2022-10-12T07:06:12.059Z,9.60
2022-10-12T07:08:40.902Z,9.70
2022-10-12T07:11:11.658Z,9.70
2022-10-12T07:13:39.669Z,9.80
2022-10-12T07:16:07.994Z,9.80
2022-10-12T07:18:35.976Z,9.80
2022-10-12T07:21:04.011Z,9.80
2022-10-12T07:23:33.682Z,9.90
2022-10-12T07:26:02.172Z,9.90
2022-10-12T07:28:30.423Z,9.90
2022-10-12T07:31:06.009Z,10.10
2022-10-12T07:33:39.745Z,10.20
2022-10-12T07:36:20.779Z,10.30
2022-10-12T07:38:50.618Z,10.30
2022-10-12T07:41:21.611Z,10.30
2022-10-12T07:43:49.518Z,10.30
2022-10-12T07:46:17.380Z,10.40
2022-10-12T07:48:50.104Z,10.50
2022-10-12T07:51:18.759Z,10.60
2022-10-12T07:53:46.855Z,10.70
2022-10-12T07:56:18.771Z,10.80
2022-10-12T07:58:55.166Z,10.80
2022-10-12T08:01:25.113Z,10.80
2022-10-12T08:03:58.818Z,10.90
2022-10-12T08:06:32.408Z,11.10
2022-10-12T08:09:02.309Z,11.30
2022-10-12T08:11:30.928Z,11.70
2022-10-12T08:13:59.307Z,12.20
2022-10-12T08:16:27.398Z,12.80
2022-10-12T08:18:55.471Z,12.80
2022-10-12T08:21:23.545Z,12.80
2022-10-12T08:23:51.810Z,13.00
2022-10-12T08:26:19.776Z,13.60
2022-10-12T08:28:48.047Z,13.90
2022-10-12T08:31:18.734Z,14.70
2022-10-12T08:33:46.781Z,15.50
2022-10-12T08:36:15.087Z,16.00
2022-10-12T08:38:44.700Z,16.70
2022-10-12T08:41:35.219Z,17.60
2022-10-12T08:44:20.241Z,18.00
2022-10-12T08:46:49.043Z,18.00
2022-10-12T08:49:27.403Z,18.30
2022-10-12T08:51:58.070Z,18.50
2022-10-12T08:54:30.806Z,19.20
2022-10-12T08:56:59.925Z,19.70
2022-10-12T08:59:30.764Z,20.00
2022-10-12T09:02:32.462Z,20.40
2022-10-12T09:05:08.874Z,20.80
2022-10-12T09:07:43.758Z,21.40
2022-10-12T09:10:47.043Z,20.80
2022-10-12T09:13:23.475Z,21.10
2022-10-12T09:16:01.494Z,21.80
2022-10-12T09:18:41.526Z,22.10
2022-10-12T09:21:20.795Z,22.20
2022-10-12T09:23:49.838Z,22.30
2022-10-12T09:26:38.552Z,22.20
2022-10-12T09:29:27.219Z,22.50
2022-10-12T09:32:32.554Z,22.80
2022-10-12T09:35:01.376Z,23.30
2022-10-12T09:37:32.887Z,23.10
2022-10-12T09:40:05.575Z,22.60
2022-10-12T09:42:36.408Z,22.90
2022-10-12T09:45:13.389Z,23.60
2022-10-12T09:47:41.479Z,23.80
2022-10-12T09:50:09.839Z,24.30
2022-10-12T09:52:46.071Z,24.60
2022-10-12T09:55:14.198Z,24.30
2022-10-12T09:57:45.665Z,24.20
2022-10-12T10:00:31.860Z,24.40
2022-10-12T10:03:00.600Z,25.20
2022-10-12T10:05:33.130Z,25.30
2022-10-12T10:08:24.721Z,25.00
2022-10-12T10:10:57.581Z,24.90
2022-10-12T10:13:29.817Z,24.50
2022-10-12T10:16:11.692Z,24.60
2022-10-12T10:18:50.048Z,24.70
2022-10-12T10:21:34.776Z,25.10
2022-10-12T10:24:08.211Z,25.30
2022-10-12T10:26:57.729Z,25.20
2022-10-12T10:29:34.949Z,25.30
2022-10-12T10:32:31.132Z,25.20
2022-10-12T10:35:21.472Z,24.50
2022-10-12T10:37:57.744Z,23.90
2022-10-12T10:40:30.211Z,23.80
2022-10-12T10:43:06.122Z,23.60
2022-10-12T10:48:25.765Z,23.20
2022-10-12T10:50:57.735Z,23.20
2022-10-12T10:56:18.885Z,22.10
2022-10-12T10:58:58.853Z,21.50
2022-10-12T11:01:32.465Z,21.40
2022-10-12T11:04:05.510Z,21.20
2022-10-12T11:06:48.144Z,21.40
2022-10-12T11:09:27.708Z,20.50
2022-10-12T11:12:07.907Z,20.10
2022-10-12T11:14:41.403Z,20.00
2022-10-12T11:17:20.236Z,19.90
2022-10-12T11:19:54.718Z,19.50
2022-10-12T11:22:29.611Z,19.30
2022-10-12T11:25:11.458Z,19.10
2022-10-12T11:27:41.441Z,19.60
2022-10-12T11:30:20.537Z,19.70
2022-10-12T11:33:06.542Z,20.00
2022-10-12T11:35:39.601Z,19.90
2022-10-12T11:38:14.950Z,19.30
2022-10-12T11:41:09.155Z,19.00
2022-10-12T11:43:43.736Z,19.20
2022-10-12T11:46:19.020Z,19.10
2022-10-12T11:49:03.866Z,19.10
2022-10-12T11:51:31.790Z,19.00
2022-10-12T11:54:08.216Z,19.20
2022-10-12T11:56:44.949Z,20.00
2022-10-12T11:59:31.816Z,20.70
2022-10-12T12:02:22.147Z,21.10
2022-10-12T12:04:54.894Z,21.10
2022-10-12T12:07:55.936Z,20.90
2022-10-12T12:10:36.211Z,20.20
2022-10-12T12:13:22.049Z,20.10
2022-10-12T12:15:58.318Z,20.70
2022-10-12T12:18:31.482Z,21.40
2022-10-12T12:21:08.519Z,21.40
2022-10-12T12:23:39.737Z,21.70
2022-10-12T12:26:16.867Z,21.60
2022-10-12T12:28:50.320Z,21.50
2022-10-12T12:31:24.838Z,21.50
2022-10-12T12:34:12.856Z,22.10
2022-10-12T12:36:45.855Z,22.00
2022-10-12T12:39:23.207Z,21.90
2022-10-12T12:42:01.950Z,21.70
2022-10-12T12:44:39.302Z,21.30
2022-10-12T12:47:44.193Z,21.10
2022-10-12T12:50:03.648Z,20.90
2022-10-12T12:52:35.659Z,20.60
2022-10-12T12:55:41.019Z,20.80
2022-10-12T12:58:15.592Z,21.30
2022-10-12T13:01:08.052Z,21.60
2022-10-12T13:03:39.117Z,21.80
2022-10-12T13:06:40.795Z,22.20
2022-10-12T13:09:37.070Z,22.20
2022-10-12T13:12:13.871Z,22.40
2022-10-12T13:14:53.619Z,22.60
2022-10-12T13:17:45.737Z,22.60
2022-10-12T13:20:19.517Z,22.70
2022-10-12T13:22:51.457Z,22.90
2022-10-12T13:25:30.522Z,22.20
2022-10-12T13:28:05.371Z,22.20
2022-10-12T13:30:47.493Z,22.40
2022-10-12T13:33:35.784Z,22.70
2022-10-12T13:36:14.414Z,23.20
2022-10-12T13:38:42.574Z,23.30
2022-10-12T13:41:31.350Z,22.90
2022-10-12T13:44:00.370Z,22.70
2022-10-12T13:46:43.633Z,22.70
2022-10-12T13:52:17.270Z,22.60
2022-10-12T13:54:49.894Z,22.80
2022-10-12T13:57:45.431Z,22.50
2022-10-12T14:00:16.505Z,22.30
2022-10-12T14:02:45.346Z,22.10
2022-10-12T14:05:22.363Z,21.90
2022-10-12T14:07:58.976Z,21.70
2022-10-12T14:10:36.389Z,21.20
2022-10-12T14:13:06.342Z,21.00
2022-10-12T14:15:38.814Z,21.20
2022-10-12T14:18:41.687Z,21.30
2022-10-12T14:21:24.613Z,21.00
2022-10-12T14:24:00.209Z,20.90
2022-10-12T14:26:39.787Z,20.90
2022-10-12T14:29:30.315Z,20.90
2022-10-12T14:32:00.874Z,21.10
2022-10-12T14:34:28.856Z,21.00
2022-10-12T14:37:15.805Z,20.60
2022-10-12T14:39:45.886Z,20.40
2022-10-12T14:42:34.253Z,20.40
2022-10-12T14:45:08.078Z,20.50
2022-10-12T14:47:39.907Z,20.30
2022-10-12T14:50:10.918Z,20.10
2022-10-12T14:52:46.870Z,20.20
2022-10-12T14:55:23.402Z,20.40
2022-10-12T14:57:51.885Z,20.40
2022-10-12T15:00:26.542Z,20.50
2022-10-12T15:02:54.984Z,20.10
2022-10-12T15:05:25.269Z,19.80
2022-10-12T15:07:53.752Z,20.00
2022-10-12T15:10:23.899Z,20.10
2022-10-12T15:12:52.795Z,20.00
2022-10-12T15:15:48.482Z,19.60
2022-10-12T15:18:16.791Z,18.70
2022-10-12T15:20:49.198Z,18.00
2022-10-12T15:23:17.969Z,17.70
2022-10-12T15:25:52.779Z,17.60
2022-10-12T15:28:21.955Z,17.40
2022-10-12T15:31:16.477Z,16.90
2022-10-12T15:33:41.299Z,16.70
2022-10-12T15:36:10.292Z,16.60
2022-10-12T15:38:38.386Z,16.50
2022-10-12T15:41:07.115Z,16.40
2022-10-12T15:43:38.068Z,16.30
2022-10-12T15:46:15.183Z,16.20
2022-10-12T15:48:45.078Z,16.30
2022-10-12T15:51:26.953Z,16.20
2022-10-12T15:53:55.986Z,16.10
2022-10-12T15:56:24.188Z,16.00
2022-10-12T15:58:52.410Z,16.00
2022-10-12T16:01:21.947Z,15.90
2022-10-12T16:03:53.463Z,15.90
2022-10-12T16:06:21.724Z,15.90
2022-10-12T16:08:49.790Z,15.80
2022-10-12T16:11:46.804Z,15.70
2022-10-12T16:14:19.477Z,15.70
2022-10-12T16:16:48.063Z,15.60
2022-10-12T16:19:22.871Z,15.50
2022-10-12T16:21:53.521Z,15.40
2022-10-12T16:24:21.498Z,15.40
2022-10-12T16:26:52.738Z,15.30
2022-10-12T16:29:20.843Z,15.20
2022-10-12T16:31:50.005Z,15.20
2022-10-12T16:34:18.242Z,15.10
2022-10-12T16:36:46.329Z,15.00
2022-10-12T16:39:16.834Z,14.90
2022-10-12T16:41:44.895Z,14.80
2022-10-12T16:44:13.225Z,14.70
2022-10-12T16:46:41.852Z,14.60
2022-10-12T16:49:09.823Z,14.60
2022-10-12T16:51:38.020Z,14.60
2022-10-12T16:54:06.437Z,14.50
2022-10-12T16:56:39.145Z,14.50
2022-10-12T16:59:07.476Z,14.30
2022-10-12T17:01:35.528Z,14.30
2022-10-12T17:04:06.821Z,14.20
2022-10-12T17:06:35.040Z,14.10
2022-10-12T17:09:03.223Z,14.00
2022-10-12T17:11:31.394Z,13.90
2022-10-12T17:13:59.880Z,13.70
2022-10-12T17:16:46.353Z,13.60
2022-10-12T17:19:16.267Z,13.40
2022-10-12T17:21:51.194Z,13.30
2022-10-12T17:24:23.657Z,13.20
2022-10-12T17:26:51.934Z,13.10
2022-10-12T17:29:21.189Z,13.10
2022-10-12T17:31:57.967Z,13.00
2022-10-12T17:34:38.931Z,13.00
2022-10-12T17:37:13.271Z,12.90
2022-10-12T17:39:46.743Z,12.90
2022-10-12T17:42:15.051Z,12.80
2022-10-12T17:47:26.781Z,12.90
2022-10-12T17:49:54.675Z,12.90
2022-10-12T17:52:22.708Z,12.90
2022-10-12T17:54:50.603Z,12.90
2022-10-12T17:57:20.105Z,12.90
2022-10-12T17:59:54.842Z,12.90
2022-10-12T18:02:26.182Z,12.90
2022-10-12T18:04:56.599Z,12.90
2022-10-12T18:07:27.561Z,12.80
2022-10-12T18:10:04.383Z,12.70
2022-10-12T18:12:36.506Z,12.60
2022-10-12T18:15:13.608Z,12.50
2022-10-12T18:17:45.798Z,12.50
2022-10-12T18:20:14.115Z,12.60
2022-10-12T18:22:41.942Z,12.50
2022-10-12T18:25:09.950Z,12.40
2022-10-12T18:27:37.803Z,12.40
2022-10-12T18:30:08.335Z,12.40
2022-10-12T18:32:38.870Z,12.30
2022-10-12T18:35:07.071Z,12.30
2022-10-12T18:37:38.083Z,12.20
2022-10-12T18:40:11.602Z,12.10
2022-10-12T18:42:41.920Z,12.20
2022-10-12T18:45:19.533Z,12.10
2022-10-12T18:47:47.560Z,12.00
2022-10-12T18:50:19.221Z,11.90
2022-10-12T18:52:47.417Z,11.80
2022-10-12T18:55:15.324Z,11.80
2022-10-12T18:57:43.586Z,11.70
2022-10-12T19:00:11.794Z,11.70
2022-10-12T19:02:39.757Z,11.70
2022-10-12T19:05:07.842Z,11.70
2022-10-12T19:07:36.469Z,11.70
2022-10-12T19:10:09.127Z,11.80
2022-10-12T19:12:37.175Z,11.80
2022-10-12T19:15:06.046Z,11.80
2022-10-12T19:17:34.458Z,11.80
2022-10-12T19:20:03.935Z,11.80
2022-10-12T19:22:31.877Z,11.70
2022-10-12T19:25:02.672Z,11.70
2022-10-12T19:27:30.549Z,11.60
2022-10-12T19:29:58.447Z,11.60
2022-10-12T19:32:26.464Z,11.50
2022-10-12T19:34:54.766Z,11.50
2022-10-12T19:37:22.734Z,11.50
2022-10-12T19:39:50.616Z,11.50
2022-10-12T19:42:18.799Z,11.50
2022-10-12T19:44:47.133Z,11.40
2022-10-12T19:47:15.126Z,11.20
2022-10-12T19:49:45.260Z,11.00
2022-10-12T19:52:13.873Z,11.00
2022-10-12T19:54:41.728Z,11.00
2022-10-12T19:57:12.863Z,11.10
2022-10-12T19:59:40.815Z,11.10
2022-10-12T20:02:10.604Z,11.10
2022-10-12T20:04:38.581Z,11.10
2022-10-12T20:07:06.525Z,11.10
2022-10-12T20:09:34.438Z,11.10
2022-10-12T20:12:02.720Z,11.20
2022-10-12T20:14:31.010Z,11.20
2022-10-12T20:16:59.950Z,11.20
2022-10-12T20:19:30.361Z,11.20
2022-10-12T20:21:58.915Z,11.10
2022-10-12T20:24:27.586Z,11.10
2022-10-12T20:26:55.446Z,11.10
2022-10-12T20:29:23.278Z,11.10
2022-10-12T20:31:51.176Z,11.10
2022-10-12T20:34:19.017Z,11.00
2022-10-12T20:36:47.068Z,10.80
2022-10-12T20:39:15.474Z,10.70
2022-10-12T20:41:43.598Z,10.80
2022-10-12T20:44:11.901Z,10.80
2022-10-12T20:46:39.795Z,10.80
2022-10-12T20:49:07.714Z,10.80
2022-10-12T20:51:37.587Z,10.90
2022-10-12T20:54:07.010Z,10.80
2022-10-12T20:56:35.486Z,10.70
2022-10-12T20:59:03.405Z,10.70
2022-10-12T21:01:31.434Z,10.70
2022-10-12T21:03:59.322Z,10.80
2022-10-12T21:06:27.637Z,10.80
2022-10-12T21:08:57.836Z,10.80
2022-10-12T21:11:26.253Z,10.80
2022-10-12T21:13:55.813Z,10.80
2022-10-12T21:16:24.101Z,10.70
2022-10-12T21:18:55.342Z,10.80
2022-10-12T21:21:23.839Z,10.80
2022-10-12T21:23:57.515Z,10.90
2022-10-12T21:26:27.576Z,10.90
2022-10-12T21:28:55.794Z,11.00
2022-10-12T21:31:27.119Z,11.00
2022-10-12T21:34:03.668Z,11.00
2022-10-12T21:36:32.767Z,11.00
2022-10-12T21:39:00.631Z,11.00
2022-10-12T21:41:32.197Z,10.90
2022-10-12T21:44:04.376Z,10.90
2022-10-12T21:46:36.139Z,10.90
2022-10-12T21:49:05.889Z,10.90
2022-10-12T21:51:33.787Z,10.70
2022-10-12T21:54:01.837Z,10.70
2022-10-12T21:56:34.703Z,10.70
2022-10-12T21:59:03.904Z,10.80
2022-10-12T22:01:40.010Z,10.80
2022-10-12T22:04:13.089Z,10.80
2022-10-12T22:06:41.621Z,10.70
2022-10-12T22:09:14.122Z,10.70
2022-10-12T22:11:42.018Z,10.80
2022-10-12T22:14:16.983Z,10.80
2022-10-12T22:16:46.803Z,10.80
2022-10-12T22:19:19.663Z,10.80
2022-10-12T22:21:52.620Z,10.70
2022-10-12T22:24:21.688Z,10.60
2022-10-12T22:26:51.890Z,10.60
2022-10-12T22:29:20.162Z,10.60
2022-10-12T22:31:50.817Z,10.60
2022-10-12T22:34:21.999Z,10.50
2022-10-12T22:36:49.901Z,10.50
2022-10-12T22:39:25.343Z,10.50
2022-10-12T22:41:53.280Z,10.40
2022-10-12T22:44:21.288Z,10.40
2022-10-12T22:46:53.819Z,10.20
2022-10-12T22:49:21.705Z,10.10
2022-10-12T22:51:49.671Z,10.10
2022-10-12T22:54:17.570Z,10.10
2022-10-12T22:56:46.639Z,10.10
2022-10-12T22:59:16.286Z,10.10
2022-10-12T23:01:44.548Z,10.10
2022-10-12T23:04:12.600Z,10.10
2022-10-12T23:06:40.477Z,10.10
2022-10-12T23:09:08.373Z,10.10
2022-10-12T23:11:36.320Z,10.00
2022-10-12T23:14:04.312Z,9.90
2022-10-12T23:16:34.015Z,9.70
2022-10-12T23:19:04.713Z,9.70
2022-10-12T23:21:34.699Z,9.60
2022-10-12T23:24:03.710Z,9.60
2022-10-12T23:26:32.067Z,9.60
2022-10-12T23:29:01.231Z,9.60
2022-10-12T23:31:31.838Z,9.60
2022-10-12T23:34:03.800Z,9.60
2022-10-12T23:36:32.596Z,9.60
2022-10-12T23:39:02.274Z,9.60
2022-10-12T23:41:30.396Z,9.60
2022-10-12T23:43:58.393Z,9.50
2022-10-12T23:46:26.440Z,9.40
2022-10-12T23:48:56.629Z,9.40
2022-10-12T23:51:25.036Z,9.40
2022-10-12T23:53:55.232Z,9.40
2022-10-12T23:56:23.094Z,9.40
2022-10-12T23:58:54.276Z,9.30
